Airfield :







YOU CAN JOIN US ON...

 
LOGIN :

Register | Disclaimer

   EN    FR    IT 

 









Legend :    VFR   Marginal VFR   IFR   Intensive IFR   Very Intensive IFR
Visi :
Ceiling :
>= 8 km
>= 3000ft
5 to 8 km
1000 to 3000 ft
1500m to 5 km
500 to 1000 ft
800 to 1500m
200 to 500 ft
< 800m
< 200 ft
Symbols :   Thunderstorms  Fog  Heavy snow  Heavy precipitations  Wind > 20 kt






- Airport Elevation : 1270 ft
- IATA code : YMT


CYMT - Chapais

CURRENT METAR :
  • 260400Z AUTO 31003KT 270V340 9SM OVC070 M17/M19 A3002 RMK SLP209

EXPIRED METARs :
  • 260300Z AUTO 32005KT 280V360 9SM OVC070 M17/M19 A3001 RMK SLP206
  • 260252Z AUTO 30003KT 190V300 9SM OVC070 M17/M19 A3002 RMK SLP209
  • 260249Z AUTO 29005KT 190V300 9SM -SN OVC070 M19/M20 A3002 RMK SLP208
  • 260237Z AUTO 22004KT 210V010 2 1/4SM -SN OVC070 M19/M21 A3002 RMK SLP210
  • 260200Z AUTO VRB02KT 9SM OVC070 M21/M23 A3002 RMK SLP213

Expired Forecast.
CZUL FIR / North America



MET'MAP, your aeronautical weather chart ! - Copyright ORBIFLY December 2007 - Disclaimer

ORBIFLY MET'MAP TEAM :

Programming & Development : Alexandra Zaïnal
Concept & original design : Baudouin d'Aumeries
Assistance for programming : Marc-Olivier Méhu
Technical & hardware support : Manuel Goepfert

Contact : metmap@orbifly.com




SOURCES & CREDITS :

   NOAA